Time;durP1;ratioP1;P1;durP2;ratioP2;P2;SDS_P1;SDS_P2;PMS_P1;PMS_P2;Temp;Humidity;BMP_temperature;BMP_pressure;BME280_temperature;BME280_humidity;BME280_pressure;Samples;Min_cycle;Max_cycle;Signal;HPM_P1;HPM_P2
2021/09/14 00:01:08;;;;;;;22.98;13.38;;;11.60;99.90;;;;;;4984015;28;20058;-75
2021/09/14 00:03:35;;;;;;;23.98;12.93;;;11.60;99.90;;;;;;4985816;28;20054;-75
2021/09/14 00:06:02;;;;;;;19.90;12.52;;;11.50;99.90;;;;;;4985391;28;20531;-75
2021/09/14 00:08:29;;;;;;;23.88;12.25;;;11.50;99.90;;;;;;4992026;28;20061;-75
2021/09/14 00:10:56;;;;;;;31.30;14.60;;;11.50;99.90;;;;;;4987711;28;20095;-75
2021/09/14 00:13:23;;;;;;;25.33;13.20;;;11.50;99.90;;;;;;4987524;28;20046;-75
2021/09/14 00:15:49;;;;;;;27.02;14.73;;;11.60;99.90;;;;;;4969567;28;20061;-75
2021/09/14 00:18:16;;;;;;;34.63;15.52;;;11.50;99.90;;;;;;4998506;28;20077;-75
2021/09/14 00:20:43;;;;;;;24.90;14.73;;;11.60;99.90;;;;;;4986527;28;20128;-76
2021/09/14 00:23:10;;;;;;;32.95;13.80;;;11.50;99.90;;;;;;4977524;28;20113;-76
2021/09/14 00:25:36;;;;;;;31.15;15.32;;;11.60;99.90;;;;;;4933794;28;20574;-76
2021/09/14 00:28:03;;;;;;;32.17;15.85;;;11.60;99.90;;;;;;4981121;28;20050;-75
2021/09/14 00:30:30;;;;;;;38.78;15.50;;;11.70;99.90;;;;;;4985435;28;20307;-75
2021/09/14 00:32:57;;;;;;;35.15;16.88;;;11.70;99.90;;;;;;4986253;28;20049;-75
2021/09/14 00:35:24;;;;;;;36.30;16.17;;;11.70;99.90;;;;;;4969175;28;20109;-76
2021/09/14 00:37:51;;;;;;;30.23;14.75;;;11.80;99.90;;;;;;4984306;28;20108;-75
2021/09/14 00:40:17;;;;;;;36.80;16.55;;;11.80;99.90;;;;;;4984247;28;20073;-76
2021/09/14 00:42:44;;;;;;;32.40;17.90;;;11.80;99.90;;;;;;4987928;28;20454;-75
2021/09/14 00:45:11;;;;;;;31.27;15.07;;;11.80;99.90;;;;;;4985730;28;20054;-75
2021/09/14 00:47:39;;;;;;;29.73;14.95;;;11.90;99.90;;;;;;4983972;28;20134;-75
2021/09/14 00:50:06;;;;;;;26.00;14.23;;;11.80;99.90;;;;;;4984518;28;20573;-75
2021/09/14 00:52:36;;;;;;;35.42;16.85;;;11.70;99.90;;;;;;4969291;28;20061;-76
2021/09/14 00:55:04;;;;;;;31.95;15.57;;;11.70;99.90;;;;;;4968663;28;20096;-76
2021/09/14 00:57:32;;;;;;;35.78;16.23;;;11.60;99.90;;;;;;4984663;28;20153;-76
2021/09/14 00:59:59;;;;;;;28.38;14.65;;;11.70;99.90;;;;;;4984023;28;20073;-75
2021/09/14 01:02:26;;;;;;;31.20;16.13;;;11.60;99.90;;;;;;4983967;28;20061;-76
2021/09/14 01:04:53;;;;;;;30.25;15.90;;;11.60;99.90;;;;;;4967671;28;20047;-76
2021/09/14 01:07:21;;;;;;;31.92;16.27;;;11.60;99.90;;;;;;4950435;28;20120;-76
2021/09/14 01:09:48;;;;;;;30.85;15.82;;;11.60;99.90;;;;;;4965320;28;20042;-76
2021/09/14 01:12:17;;;;;;;31.25;16.27;;;11.60;99.90;;;;;;4985305;28;20108;-76
2021/09/14 01:14:57;;;;;;;26.77;14.68;;;11.60;99.90;;;;;;4983967;28;20288;-76
2021/09/14 01:17:25;;;;;;;28.27;15.10;;;11.50;99.90;;;;;;4967245;28;20082;-76
2021/09/14 01:19:54;;;;;;;29.52;16.65;;;11.50;99.90;;;;;;4984767;28;20137;-76
2021/09/14 01:22:28;;;;;;;30.00;15.18;;;11.60;99.90;;;;;;4981439;28;20054;-75
2021/09/14 01:24:56;;;;;;;27.35;13.90;;;11.60;99.90;;;;;;4948142;28;20047;-75
2021/09/14 01:27:23;;;;;;;29.30;16.00;;;11.60;99.90;;;;;;4962931;28;20053;-76
2021/09/14 01:32:36;;;;;;;29.33;14.65;;;11.50;99.90;;;;;;4984405;28;20049;-75
2021/09/14 01:35:06;;;;;;;30.67;14.98;;;11.60;99.90;;;;;;4951904;28;20042;-76
2021/09/14 01:37:35;;;;;;;28.88;15.57;;;11.60;99.90;;;;;;4967711;28;20077;-76
2021/09/14 01:40:03;;;;;;;23.38;13.13;;;11.50;99.90;;;;;;4950095;28;20050;-76
2021/09/14 01:42:30;;;;;;;29.27;15.00;;;11.50;99.90;;;;;;4982847;28;20042;-76
2021/09/14 01:44:57;;;;;;;25.52;14.13;;;11.60;99.90;;;;;;4967947;28;20054;-76
2021/09/14 01:47:24;;;;;;;28.45;13.68;;;11.50;99.90;;;;;;4966062;28;20050;-76
2021/09/14 01:49:51;;;;;;;27.13;14.95;;;11.50;99.90;;;;;;4983592;28;20100;-76
2021/09/14 01:52:18;;;;;;;28.40;14.77;;;11.50;99.90;;;;;;4999426;28;20054;-76
2021/09/14 01:54:45;;;;;;;30.58;15.20;;;11.50;99.90;;;;;;4982781;28;20427;-76
2021/09/14 01:57:12;;;;;;;27.80;15.43;;;11.60;99.90;;;;;;4991361;28;20057;-76
2021/09/14 01:59:42;;;;;;;31.45;15.95;;;11.50;99.90;;;;;;4947976;28;20149;-75
2021/09/14 02:02:16;;;;;;;36.03;16.73;;;11.60;99.90;;;;;;4963650;28;20158;-75
2021/09/14 02:43:08;;;;;;;27.77;15.68;;;11.60;99.90;;;;;;4984873;28;20400;-76
2021/09/14 02:56:39;;;;;;;42.53;21.13;;;11.70;99.90;;;;;;4966857;28;19944;-76
2021/09/14 02:59:06;;;;;;;43.78;20.17;;;11.80;99.90;;;;;;4982298;28;20718;-76
2021/09/14 03:01:33;;;;;;;34.53;18.92;;;11.80;99.90;;;;;;4982332;28;20301;-76
2021/09/14 03:04:05;;;;;;;40.28;20.52;;;11.70;99.90;;;;;;4983818;28;20514;-76
2021/09/14 03:06:32;;;;;;;37.88;19.98;;;11.70;99.90;;;;;;4969381;28;20050;-75
2021/09/14 03:09:05;;;;;;;37.65;19.67;;;11.60;99.90;;;;;;4984315;28;20149;-75
2021/09/14 03:11:34;;;;;;;46.15;21.27;;;11.60;99.90;;;;;;4990164;28;20046;-75
2021/09/14 03:14:01;;;;;;;47.13;21.00;;;11.70;99.90;;;;;;4954556;28;20042;-76
2021/09/14 03:16:30;;;;;;;40.67;20.08;;;11.50;99.90;;;;;;4985081;28;20070;-76
2021/09/14 03:18:59;;;;;;;42.65;20.90;;;11.40;99.90;;;;;;4974669;28;20069;-75
2021/09/14 03:21:26;;;;;;;39.30;20.48;;;11.30;99.90;;;;;;4968541;28;20050;-75
2021/09/14 03:23:54;;;;;;;43.70;21.70;;;11.40;99.90;;;;;;4949172;28;20054;-75
2021/09/14 03:26:21;;;;;;;45.33;22.45;;;11.60;99.90;;;;;;4985154;28;20058;-75
2021/09/14 03:28:48;;;;;;;46.78;21.83;;;11.60;99.90;;;;;;4985977;28;20085;-75
2021/09/14 03:31:16;;;;;;;43.90;21.00;;;11.40;99.90;;;;;;4986233;28;20562;-76
2021/09/14 03:33:44;;;;;;;38.67;20.63;;;11.20;99.90;;;;;;4986582;28;20054;-76
2021/09/14 03:36:12;;;;;;;41.88;21.00;;;11.20;99.90;;;;;;4968758;28;20050;-75
2021/09/14 03:38:39;;;;;;;41.25;20.27;;;11.10;99.90;;;;;;4986464;28;20683;-76
2021/09/14 03:41:06;;;;;;;37.90;21.63;;;11.20;99.90;;;;;;4986954;28;20483;-76
2021/09/14 03:43:33;;;;;;;43.70;22.50;;;11.10;99.90;;;;;;4969780;28;20046;-75
2021/09/14 03:45:59;;;;;;;42.45;22.05;;;11.10;99.90;;;;;;4983705;28;20434;-75
2021/09/14 03:48:29;;;;;;;41.55;23.77;;;11.20;99.90;;;;;;4984652;28;20777;-75
2021/09/14 03:50:57;;;;;;;51.00;23.00;;;11.20;99.90;;;;;;4951904;28;20061;-76
2021/09/14 03:53:24;;;;;;;44.70;21.77;;;11.10;99.90;;;;;;4968945;28;20132;-75
2021/09/14 03:55:52;;;;;;;43.08;21.83;;;11.10;99.90;;;;;;4984892;28;20502;-75
2021/09/14 03:58:20;;;;;;;41.90;20.63;;;11.00;99.90;;;;;;4968511;28;20065;-75
2021/09/14 04:00:51;;;;;;;55.90;25.02;;;10.90;99.90;;;;;;4966760;28;20097;-75
2021/09/14 04:08:51;;;;;;;52.65;24.48;;;11.20;99.90;;;;;;4983434;28;20057;-76
2021/09/14 04:11:43;;;;;;;;;;;11.30;99.90;;;;;;4982241;28;20125;-75
2021/09/14 04:14:10;;;;;;;52.38;24.58;;;11.20;99.90;;;;;;5001254;28;19972;-76
2021/09/14 04:16:37;;;;;;;46.03;20.77;;;11.00;99.90;;;;;;4977426;28;20043;-76
2021/09/14 04:19:03;;;;;;;42.95;21.08;;;10.80;99.90;;;;;;4983483;28;20057;-76
2021/09/14 04:21:30;;;;;;;52.38;23.17;;;10.70;99.90;;;;;;4982389;28;20065;-76
2021/09/14 04:23:57;;;;;;;49.10;24.23;;;10.60;99.90;;;;;;4953278;28;20301;-75
2021/09/14 04:26:26;;;;;;;73.55;27.73;;;10.70;99.90;;;;;;4950761;28;20042;-76
2021/09/14 04:28:53;;;;;;;56.08;26.85;;;10.70;99.90;;;;;;4984532;28;20044;-76
2021/09/14 04:31:20;;;;;;;57.50;25.75;;;10.90;99.90;;;;;;4948050;28;20051;-76
2021/09/14 04:33:47;;;;;;;52.95;24.55;;;10.80;99.90;;;;;;4964439;28;20125;-75
2021/09/14 04:36:14;;;;;;;52.90;24.33;;;10.70;99.90;;;;;;4948052;28;20046;-75
2021/09/14 04:38:42;;;;;;;47.47;22.88;;;10.60;99.90;;;;;;4948293;28;20054;-75
2021/09/14 04:41:10;;;;;;;50.38;23.70;;;10.60;99.90;;;;;;4966380;28;20170;-75
2021/09/14 04:43:37;;;;;;;44.97;23.52;;;10.60;99.90;;;;;;4968100;28;20058;-75
2021/09/14 04:46:06;;;;;;;54.22;25.20;;;10.60;99.90;;;;;;4984840;28;20422;-75
2021/09/14 04:48:33;;;;;;;56.28;24.17;;;10.50;99.90;;;;;;4981731;28;20046;-75
2021/09/14 04:51:00;;;;;;;53.67;24.15;;;10.40;99.90;;;;;;4996105;28;20149;-75
2021/09/14 04:53:27;;;;;;;56.33;26.15;;;10.40;99.90;;;;;;4974563;28;20055;-75
2021/09/14 04:55:54;;;;;;;64.57;26.60;;;10.40;99.90;;;;;;4957901;28;20039;-76
2021/09/14 04:58:20;;;;;;;66.43;26.70;;;10.40;99.90;;;;;;4984007;28;20086;-75
2021/09/14 05:00:47;;;;;;;76.70;29.58;;;10.40;99.90;;;;;;4979369;28;20407;-76
2021/09/14 05:03:18;;;;;;;66.90;26.58;;;10.40;99.90;;;;;;4980680;28;20448;-76
2021/09/14 05:05:45;;;;;;;61.13;25.77;;;10.40;99.90;;;;;;4966869;28;20046;-75
2021/09/14 05:08:12;;;;;;;59.70;27.58;;;10.40;99.90;;;;;;4967163;28;20061;-76
2021/09/14 05:10:39;;;;;;;61.15;27.17;;;10.40;99.90;;;;;;4964543;28;20516;-75
2021/09/14 05:13:07;;;;;;;70.32;29.35;;;10.40;99.90;;;;;;4967820;28;20054;-75
2021/09/14 05:15:35;;;;;;;60.83;25.30;;;10.50;99.90;;;;;;4983363;28;20141;-75
2021/09/14 05:18:11;;;;;;;65.32;26.98;;;10.50;99.90;;;;;;4989271;28;20097;-76
2021/09/14 05:20:46;;;;;;;60.72;26.17;;;10.50;99.90;;;;;;4964205;28;20057;-76
2021/09/14 05:23:20;;;;;;;70.68;28.63;;;10.50;99.90;;;;;;4983423;28;20054;-76
2021/09/14 05:25:47;;;;;;;81.28;31.08;;;10.50;99.90;;;;;;4982009;28;20061;-76
2021/09/14 05:28:14;;;;;;;63.90;28.38;;;10.50;99.90;;;;;;4983467;28;20423;-76
2021/09/14 05:30:43;;;;;;;72.65;29.75;;;10.50;99.90;;;;;;4993968;28;20054;-76
2021/09/14 05:33:10;;;;;;;70.30;28.27;;;10.40;99.90;;;;;;4952489;28;20219;-75
2021/09/14 05:35:50;;;;;;;78.68;29.30;;;10.50;99.90;;;;;;4985842;28;20069;-76
2021/09/14 05:38:21;;;;;;;59.72;25.35;;;10.50;99.90;;;;;;4982748;28;20169;-75
2021/09/14 05:40:54;;;;;;;63.75;27.67;;;10.50;99.90;;;;;;4966503;28;20538;-75
2021/09/14 05:43:26;;;;;;;81.97;30.73;;;10.50;99.90;;;;;;4964401;28;20113;-75
2021/09/14 05:45:54;;;;;;;64.72;27.55;;;10.60;99.90;;;;;;4970781;28;20057;-75
2021/09/14 05:48:28;;;;;;;70.28;27.73;;;10.70;99.90;;;;;;4967883;28;20050;-76
2021/09/14 05:50:55;;;;;;;76.90;30.17;;;10.60;99.90;;;;;;4966797;28;20050;-75
2021/09/14 05:53:22;;;;;;;78.53;31.38;;;10.80;99.90;;;;;;4966092;28;20133;-75
2021/09/14 05:55:54;;;;;;;73.43;29.25;;;10.90;99.90;;;;;;4981325;28;20061;-76
2021/09/14 05:58:21;;;;;;;68.55;29.13;;;10.90;99.90;;;;;;4981349;28;20668;-75
2021/09/14 06:00:47;;;;;;;70.85;29.67;;;10.90;99.90;;;;;;4967509;28;20515;-76
2021/09/14 06:03:15;;;;;;;71.78;29.55;;;10.90;99.90;;;;;;4946826;28;20086;-75
2021/09/14 06:05:41;;;;;;;59.35;27.70;;;11.00;99.90;;;;;;4982168;28;20058;-75
2021/09/14 06:08:08;;;;;;;57.45;25.92;;;11.00;99.90;;;;;;4966335;28;20062;-76
2021/09/14 06:10:40;;;;;;;67.97;28.23;;;11.00;99.90;;;;;;4962784;28;20613;-75
2021/09/14 06:13:14;;;;;;;50.40;24.25;;;11.10;99.90;;;;;;4981216;28;20053;-75
2021/09/14 06:15:42;;;;;;;49.13;25.13;;;11.20;99.90;;;;;;4966095;28;20050;-76
2021/09/14 06:18:10;;;;;;;55.65;26.95;;;11.30;99.90;;;;;;4982003;28;20058;-76
2021/09/14 06:20:39;;;;;;;50.05;26.60;;;11.20;99.90;;;;;;4965214;28;20102;-76
2021/09/14 06:23:05;;;;;;;53.78;26.45;;;11.50;99.90;;;;;;4993325;28;20545;-76
2021/09/14 06:25:36;;;;;;;50.42;27.13;;;11.70;99.90;;;;;;4980285;28;20101;-75
2021/09/14 06:28:05;;;;;;;53.83;26.98;;;11.90;99.90;;;;;;4975635;28;20554;-75
2021/09/14 06:30:33;;;;;;;49.58;25.25;;;12.10;99.90;;;;;;4954961;28;20047;-76
2021/09/14 06:33:02;;;;;;;38.28;24.48;;;12.30;99.90;;;;;;4959456;28;20045;-74
2021/09/14 06:35:30;;;;;;;37.85;21.63;;;12.60;99.90;;;;;;4978446;28;20069;-75
2021/09/14 06:38:04;;;;;;;31.27;21.70;;;12.80;99.90;;;;;;4953523;28;20499;-75
2021/09/14 06:40:32;;;;;;;37.00;19.92;;;13.00;99.90;;;;;;4963735;28;20058;-75
2021/09/14 06:42:59;;;;;;;30.88;19.08;;;13.10;99.90;;;;;;4982378;28;20277;-75
2021/09/14 06:45:46;;;;;;;32.13;18.98;;;13.20;99.90;;;;;;4966461;28;20061;-75
2021/09/14 06:48:31;;;;;;;27.25;18.80;;;13.30;99.90;;;;;;4966906;28;20046;-75
2021/09/14 06:50:57;;;;;;;25.20;18.88;;;13.40;99.90;;;;;;4983309;28;20058;-76
2021/09/14 06:53:28;;;;;;;25.33;17.38;;;13.60;99.90;;;;;;4983633;28;20534;-76
2021/09/14 06:55:56;;;;;;;34.13;19.77;;;13.60;99.90;;;;;;4982515;28;20414;-75
2021/09/14 06:58:26;;;;;;;26.75;18.60;;;13.70;99.90;;;;;;4981911;28;20066;-75
2021/09/14 07:00:53;;;;;;;26.15;18.23;;;13.90;99.90;;;;;;4982664;28;20611;-75
2021/09/14 07:03:23;;;;;;;25.13;16.98;;;14.00;99.90;;;;;;4966098;28;20116;-76
2021/09/14 07:05:50;;;;;;;23.20;15.77;;;14.00;99.90;;;;;;4982327;28;20329;-76
2021/09/14 07:08:17;;;;;;;20.90;15.45;;;14.20;99.90;;;;;;4983582;28;20062;-76
2021/09/14 07:10:44;;;;;;;24.30;16.20;;;14.30;99.90;;;;;;4983832;28;20074;-75
2021/09/14 07:13:11;;;;;;;23.05;16.17;;;14.40;99.90;;;;;;4982409;28;20561;-72
2021/09/14 07:15:37;;;;;;;23.98;16.30;;;14.50;99.90;;;;;;4983596;28;20054;-72
2021/09/14 07:18:04;;;;;;;23.25;16.48;;;14.60;99.90;;;;;;4982152;28;20066;-72
2021/09/14 07:20:31;;;;;;;21.65;15.82;;;14.80;99.90;;;;;;4965975;28;20053;-72
2021/09/14 07:22:58;;;;;;;18.25;14.07;;;15.00;99.90;;;;;;4976859;28;20512;-71
2021/09/14 07:25:26;;;;;;;21.48;14.43;;;15.30;99.90;;;;;;4962215;28;20113;-71
2021/09/14 07:27:53;;;;;;;15.45;12.70;;;15.40;99.90;;;;;;4963563;28;20168;-74
2021/09/14 07:30:20;;;;;;;22.25;14.02;;;15.50;99.90;;;;;;4973264;28;20329;-71
2021/09/14 07:32:53;;;;;;;17.10;12.35;;;15.50;99.90;;;;;;4982239;28;20050;-71
2021/09/14 07:35:21;;;;;;;19.40;13.48;;;15.70;99.90;;;;;;4982920;28;20117;-72
2021/09/14 07:37:47;;;;;;;15.00;12.30;;;15.90;99.90;;;;;;4982331;28;20046;-72
2021/09/14 07:40:14;;;;;;;17.00;11.90;;;16.20;99.90;;;;;;4982967;28;20058;-72
2021/09/14 07:42:41;;;;;;;15.13;12.48;;;16.60;99.90;;;;;;4980977;28;20054;-73
2021/09/14 07:45:08;;;;;;;13.43;12.13;;;17.10;99.90;;;;;;4983158;28;20511;-72
2021/09/14 07:47:35;;;;;;;18.38;11.48;;;17.10;99.90;;;;;;4984907;28;20112;-72
2021/09/14 07:50:03;;;;;;;15.02;11.20;;;17.10;99.90;;;;;;4982952;28;20101;-73
2021/09/14 07:52:33;;;;;;;15.48;12.75;;;17.30;99.90;;;;;;4984573;28;20621;-73
2021/09/14 07:55:00;;;;;;;13.57;12.25;;;17.50;99.90;;;;;;4968843;28;20062;-72
2021/09/14 07:57:28;;;;;;;14.98;12.07;;;17.60;99.90;;;;;;4983029;28;20113;-74
2021/09/14 07:59:56;;;;;;;12.88;11.68;;;18.00;99.90;;;;;;4983674;28;20054;-73
2021/09/14 08:02:23;;;;;;;13.65;12.32;;;18.30;99.90;;;;;;4984750;28;20046;-74
2021/09/14 08:04:51;;;;;;;13.27;12.02;;;18.50;99.90;;;;;;4986139;28;20050;-73
2021/09/14 08:07:18;;;;;;;18.13;13.70;;;18.70;99.90;;;;;;4985785;28;20062;-74
2021/09/14 08:09:45;;;;;;;15.95;14.38;;;19.10;99.90;;;;;;4999396;28;20059;-73
2021/09/14 08:12:12;;;;;;;15.68;13.80;;;19.20;99.90;;;;;;4986119;28;20054;-73
2021/09/14 08:14:38;;;;;;;14.43;13.15;;;19.20;99.90;;;;;;4985841;28;20077;-73
2021/09/14 08:17:05;;;;;;;16.45;15.00;;;19.20;99.90;;;;;;4981914;28;20046;-73
2021/09/14 08:19:32;;;;;;;20.15;15.00;;;19.20;99.90;;;;;;4976491;28;20285;-74
2021/09/14 08:21:59;;;;;;;17.98;15.90;;;19.30;99.90;;;;;;4984571;28;20057;-73
2021/09/14 08:24:25;;;;;;;17.75;16.20;;;19.50;99.90;;;;;;4969131;28;20482;-74
2021/09/14 08:26:52;;;;;;;17.45;15.88;;;19.40;99.90;;;;;;4998973;28;20104;-74
2021/09/14 08:29:19;;;;;;;17.83;16.00;;;19.30;99.90;;;;;;4985938;28;20050;-73
2021/09/14 08:31:46;;;;;;;16.67;15.10;;;19.30;99.90;;;;;;4982599;28;20418;-73
2021/09/14 08:34:12;;;;;;;17.02;15.52;;;19.00;99.90;;;;;;4985305;28;20499;-73
2021/09/14 08:36:39;;;;;;;18.55;16.83;;;19.00;99.90;;;;;;4985288;28;20112;-73
2021/09/14 08:39:06;;;;;;;17.13;15.35;;;18.90;99.90;;;;;;4969057;28;20514;-73
2021/09/14 08:41:33;;;;;;;19.17;17.02;;;19.20;99.90;;;;;;4984783;28;20711;-73
2021/09/14 08:44:01;;;;;;;18.00;16.17;;;19.00;99.90;;;;;;4984516;28;20102;-73
2021/09/14 08:46:35;;;;;;;15.23;13.90;;;18.80;99.90;;;;;;4982948;28;20050;-73
2021/09/14 08:49:02;;;;;;;18.13;16.63;;;18.80;99.90;;;;;;4983576;28;20109;-73
2021/09/14 08:51:28;;;;;;;17.88;16.48;;;19.30;99.90;;;;;;4983169;28;20053;-73
2021/09/14 08:53:55;;;;;;;17.55;15.93;;;19.30;99.90;;;;;;4984261;28;20141;-73
2021/09/14 08:56:22;;;;;;;17.05;15.65;;;19.40;99.90;;;;;;4984073;28;20041;-73
2021/09/14 08:58:59;;;;;;;17.52;15.68;;;19.40;99.90;;;;;;4968405;28;20046;-72
2021/09/14 09:01:28;;;;;;;17.23;15.73;;;19.80;99.90;;;;;;4982842;28;20482;-73
2021/09/14 09:03:59;;;;;;;18.75;16.88;;;19.60;99.90;;;;;;4984339;28;20080;-73
2021/09/14 09:06:34;;;;;;;19.27;17.25;;;19.40;99.90;;;;;;4985653;28;20343;-73
2021/09/14 09:09:11;;;;;;;16.95;15.45;;;19.60;99.90;;;;;;4981812;28;20054;-73
2021/09/14 09:11:38;;;;;;;18.02;16.63;;;19.80;99.90;;;;;;5000033;28;20054;-73
2021/09/14 09:14:06;;;;;;;17.15;15.68;;;20.30;99.90;;;;;;5003521;28;20037;-73
2021/09/14 09:16:33;;;;;;;18.73;16.90;;;20.20;99.90;;;;;;5004779;28;20049;-73
2021/09/14 09:19:02;;;;;;;17.85;16.20;;;20.60;99.90;;;;;;4983185;28;20057;-72
2021/09/14 09:21:38;;;;;;;18.90;17.33;;;20.60;99.90;;;;;;4983692;28;20058;-73
2021/09/14 09:24:08;;;;;;;18.17;16.55;;;20.90;99.90;;;;;;4969827;28;20050;-75
2021/09/14 09:26:37;;;;;;;19.77;18.02;;;21.10;99.90;;;;;;4972682;28;20050;-74
2021/09/14 09:29:06;;;;;;;19.80;18.15;;;21.40;99.90;;;;;;4984439;28;20596;-74
2021/09/14 09:31:37;;;;;;;19.42;17.58;;;21.20;99.90;;;;;;4950661;28;20046;-74
2021/09/14 09:34:09;;;;;;;19.73;17.65;;;21.20;99.90;;;;;;4966891;28;20522;-75
2021/09/14 09:36:40;;;;;;;18.85;17.08;;;21.20;99.90;;;;;;4983702;28;20057;-74
2021/09/14 09:39:15;;;;;;;19.15;17.45;;;21.20;99.90;;;;;;4984254;28;20061;-74
2021/09/14 09:41:55;;;;;;;19.50;17.73;;;21.00;99.90;;;;;;4984793;28;20108;-74
2021/09/14 09:44:22;;;;;;;18.20;16.70;;;21.10;99.90;;;;;;4983531;28;20054;-74
2021/09/14 09:47:01;;;;;;;19.08;17.35;;;21.20;99.90;;;;;;4982993;28;20265;-74
2021/09/14 09:49:28;;;;;;;17.23;15.63;;;21.30;99.90;;;;;;4983378;28;20078;-73
2021/09/14 09:51:57;;;;;;;16.02;14.82;;;21.10;99.90;;;;;;4984760;28;20454;-74
2021/09/14 09:54:25;;;;;;;15.75;14.45;;;21.20;99.90;;;;;;4951443;28;20050;-74
2021/09/14 09:56:53;;;;;;;16.52;15.23;;;21.60;99.90;;;;;;4982975;28;20133;-73
2021/09/14 09:59:20;;;;;;;15.75;14.50;;;21.70;99.90;;;;;;4997264;28;20525;-74
2021/09/14 10:02:22;;;;;;;15.43;14.02;;;21.20;99.90;;;;;;4982131;28;20061;-74
2021/09/14 10:04:55;;;;;;;15.88;14.50;;;21.70;99.90;;;;;;4962359;28;20492;-74
2021/09/14 10:07:31;;;;;;;16.08;14.90;;;21.80;99.90;;;;;;4966361;28;20085;-73
2021/09/14 10:09:59;;;;;;;15.82;14.75;;;21.90;99.90;;;;;;4982609;28;20069;-74
2021/09/14 10:12:26;;;;;;;15.20;14.20;;;21.70;99.90;;;;;;4981484;28;20054;-74
2021/09/14 10:15:04;;;;;;;15.63;14.52;;;21.80;99.90;;;;;;4981239;28;20073;-74
2021/09/14 10:17:44;;;;;;;14.63;13.13;;;21.70;99.90;;;;;;4984616;28;20053;-73
2021/09/14 10:20:11;;;;;;;15.40;14.15;;;21.70;99.90;;;;;;4996554;28;20569;-74
2021/09/14 10:22:38;;;;;;;15.68;14.00;;;22.00;99.90;;;;;;4985466;28;20069;-74
2021/09/14 10:25:08;;;;;;;17.45;15.95;;;22.20;99.90;;;;;;4983598;28;20046;-73
2021/09/14 10:27:40;;;;;;;16.48;15.32;;;22.30;99.90;;;;;;4982450;28;20062;-74
2021/09/14 10:30:12;;;;;;;16.65;15.32;;;22.00;99.90;;;;;;4975961;28;20051;-74
2021/09/14 10:32:46;;;;;;;15.60;14.45;;;21.70;99.90;;;;;;4972588;28;20521;-74
2021/09/14 10:35:35;;;;;;;16.48;15.27;;;21.50;99.90;;;;;;4983572;28;20062;-74
2021/09/14 10:38:10;;;;;;;16.73;15.23;;;21.00;99.90;;;;;;4985294;28;20050;-73
2021/09/14 10:40:38;;;;;;;17.15;15.82;;;21.30;99.90;;;;;;4965736;28;20042;-74
2021/09/14 10:43:19;;;;;;;17.38;16.05;;;21.20;99.90;;;;;;4983071;28;20392;-74
2021/09/14 10:45:46;;;;;;;17.10;15.90;;;21.10;99.90;;;;;;4983397;28;20575;-74
2021/09/14 10:48:24;;;;;;;17.02;15.68;;;21.20;99.90;;;;;;4983743;28;20080;-74
2021/09/14 10:50:52;;;;;;;18.42;17.00;;;21.30;99.90;;;;;;4980923;28;20046;-74
2021/09/14 10:53:30;;;;;;;17.95;16.45;;;21.10;99.90;;;;;;4990628;28;20057;-74
2021/09/14 10:55:59;;;;;;;17.42;16.02;;;21.10;99.90;;;;;;4983859;28;20523;-74
2021/09/14 10:58:41;;;;;;;18.17;16.65;;;21.30;99.90;;;;;;4984197;28;20251;-74
2021/09/14 11:01:08;;;;;;;16.15;14.95;;;21.40;99.90;;;;;;4982881;28;20047;-74
2021/09/14 11:03:35;;;;;;;17.75;16.40;;;21.90;99.90;;;;;;4981901;28;20046;-74
2021/09/14 11:06:02;;;;;;;16.60;15.10;;;22.30;99.90;;;;;;4962832;28;20055;-73
2021/09/14 11:08:29;;;;;;;15.20;14.10;;;22.30;99.90;;;;;;4978763;28;20528;-73
2021/09/14 11:11:01;;;;;;;15.05;13.75;;;22.30;99.90;;;;;;4981458;28;20053;-72
2021/09/14 11:13:30;;;;;;;15.70;14.35;;;22.20;99.90;;;;;;4980802;28;20054;-72
2021/09/14 11:16:04;;;;;;;16.40;14.77;;;22.20;99.90;;;;;;4981618;28;20085;-72
2021/09/14 11:18:33;;;;;;;14.57;13.30;;;22.40;99.90;;;;;;4983960;28;20120;-72
2021/09/14 11:21:12;;;;;;;15.82;14.73;;;22.50;99.90;;;;;;4981392;28;20075;-73
2021/09/14 11:23:41;;;;;;;16.25;14.85;;;22.80;99.90;;;;;;4977982;28;20050;-72
2021/09/14 11:26:11;;;;;;;15.88;14.73;;;23.10;99.90;;;;;;4984234;28;20038;-72
2021/09/14 11:28:39;;;;;;;15.35;13.93;;;23.20;99.90;;;;;;4997097;28;20158;-72
2021/09/14 11:31:11;;;;;;;17.17;15.60;;;22.80;99.90;;;;;;4986739;28;20050;-72
2021/09/14 11:33:43;;;;;;;17.30;15.85;;;22.70;99.90;;;;;;4970022;28;20136;-73
2021/09/14 11:36:13;;;;;;;16.15;14.80;;;22.80;99.90;;;;;;4969228;28;20201;-74
2021/09/14 11:38:40;;;;;;;15.52;14.32;;;22.90;99.90;;;;;;4985391;28;20109;-72
2021/09/14 11:41:11;;;;;;;16.13;14.82;;;23.10;99.90;;;;;;4986901;28;20101;-72
2021/09/14 11:43:43;;;;;;;19.25;17.35;;;22.90;99.90;;;;;;4987501;28;20097;-72
2021/09/14 11:46:18;;;;;;;15.10;13.90;;;22.90;99.90;;;;;;4985780;28;20108;-74
2021/09/14 11:49:03;;;;;;;15.38;14.38;;;23.00;99.90;;;;;;4985068;28;20053;-80
2021/09/14 11:51:36;;;;;;;15.73;14.53;;;23.00;99.90;;;;;;4989428;28;20062;-79
2021/09/14 11:54:03;;;;;;;16.20;15.02;;;23.00;99.90;;;;;;4989376;28;20294;-77
2021/09/14 11:56:30;;;;;;;16.33;15.02;;;22.90;99.90;;;;;;5003768;28;20051;-77
2021/09/14 11:58:57;;;;;;;16.02;15.02;;;22.90;99.90;;;;;;4991840;28;20050;-78
2021/09/14 12:01:30;;;;;;;17.88;16.27;;;23.20;99.90;;;;;;4990796;28;20046;-78
2021/09/14 12:03:57;;;;;;;18.40;16.70;;;23.10;99.90;;;;;;4993030;28;20054;-78
2021/09/14 12:06:32;;;;;;;17.08;15.48;;;23.20;99.90;;;;;;4976286;28;20062;-78
2021/09/14 12:09:00;;;;;;;15.52;14.20;;;23.50;99.90;;;;;;4989601;28;20104;-78
2021/09/14 12:11:29;;;;;;;15.27;14.23;;;23.80;99.90;;;;;;4988933;28;20073;-77
2021/09/14 12:14:00;;;;;;;16.23;14.65;;;23.90;99.90;;;;;;4989642;28;20586;-78
2021/09/14 12:16:28;;;;;;;15.63;14.32;;;24.00;99.90;;;;;;5007917;28;20043;-78
2021/09/14 12:18:56;;;;;;;17.35;15.88;;;23.70;99.90;;;;;;4983179;28;20046;-77
2021/09/14 12:21:24;;;;;;;21.23;19.23;;;24.00;99.90;;;;;;4990933;28;20054;-79
2021/09/14 12:23:53;;;;;;;17.08;15.35;;;23.90;99.90;;;;;;4978001;28;20055;-77
2021/09/14 12:26:27;;;;;;;16.15;14.82;;;23.80;99.90;;;;;;4981607;28;20058;-78
2021/09/14 12:28:56;;;;;;;16.40;15.20;;;23.70;99.90;;;;;;4990499;28;20468;-78
2021/09/14 12:31:24;;;;;;;16.63;15.45;;;24.10;99.90;;;;;;4974085;28;20046;-78
2021/09/14 12:33:51;;;;;;;17.35;15.85;;;24.40;99.90;;;;;;4988359;28;20050;-78
2021/09/14 12:36:18;;;;;;;18.08;16.67;;;24.70;99.90;;;;;;4990295;28;20045;-78
2021/09/14 12:38:45;;;;;;;20.65;19.00;;;24.80;99.90;;;;;;4991941;28;20049;-77
2021/09/14 12:41:15;;;;;;;19.05;17.40;;;24.40;99.90;;;;;;4975368;28;20078;-79
2021/09/14 12:43:43;;;;;;;18.65;16.98;;;24.20;99.90;;;;;;4991522;28;20049;-77
2021/09/14 12:46:10;;;;;;;19.50;18.08;;;24.40;99.90;;;;;;4991766;28;20065;-79
2021/09/14 12:48:37;;;;;;;16.63;15.43;;;24.20;99.90;;;;;;4992480;28;20508;-78
2021/09/14 12:51:05;;;;;;;17.00;15.80;;;24.10;99.90;;;;;;4987422;28;20065;-78
2021/09/14 12:53:32;;;;;;;18.23;16.83;;;24.10;99.90;;;;;;4990875;28;20046;-79
2021/09/14 12:55:59;;;;;;;18.15;16.50;;;24.40;99.90;;;;;;4993170;28;20054;-78
2021/09/14 12:58:40;;;;;;;17.60;16.27;;;24.40;99.90;;;;;;4991681;28;20060;-79
2021/09/14 13:01:06;;;;;;;16.30;15.10;;;24.70;99.90;;;;;;4991183;28;20057;-79
2021/09/14 13:03:33;;;;;;;17.60;16.40;;;25.00;99.90;;;;;;4991544;28;20049;-79
2021/09/14 13:06:00;;;;;;;18.00;16.83;;;25.20;99.90;;;;;;4990570;28;20050;-79
2021/09/14 13:08:27;;;;;;;17.92;16.60;;;25.20;99.90;;;;;;4989672;28;20543;-79
2021/09/14 13:10:56;;;;;;;18.70;17.13;;;24.80;99.90;;;;;;4991369;28;20058;-79
2021/09/14 13:16:14;;;;;;;17.80;16.60;;;24.60;99.90;;;;;;4990249;28;20042;-78
2021/09/14 13:18:43;;;;;;;19.08;17.58;;;24.70;99.90;;;;;;4972130;28;20050;-79
2021/09/14 13:21:11;;;;;;;17.75;16.33;;;24.50;99.90;;;;;;4990444;28;20038;-79
2021/09/14 13:23:39;;;;;;;18.80;17.50;;;24.40;99.90;;;;;;4979303;28;20050;-79
2021/09/14 13:26:06;;;;;;;17.60;16.40;;;24.20;99.90;;;;;;4954419;28;20120;-79
2021/09/14 13:28:33;;;;;;;17.52;16.35;;;24.30;99.90;;;;;;4971459;28;20196;-79
2021/09/14 13:31:01;;;;;;;17.63;16.25;;;24.20;99.90;;;;;;4971348;28;20526;-80
2021/09/14 13:33:28;;;;;;;16.83;15.68;;;24.30;99.90;;;;;;4971161;28;20046;-80
2021/09/14 13:35:56;;;;;;;18.00;16.55;;;24.40;99.90;;;;;;4972008;28;20085;-79
2021/09/14 13:38:24;;;;;;;16.98;15.60;;;24.50;99.90;;;;;;4957222;28;20057;-80